createdAt,value
2018-10-19T00:00:55.720Z,7.60
2018-10-19T00:03:24.134Z,7.50
2018-10-19T00:05:52.550Z,7.50
2018-10-19T00:08:21.054Z,7.40
2018-10-19T00:10:49.522Z,7.60
2018-10-19T00:13:17.958Z,7.60
2018-10-19T00:15:46.401Z,7.60
2018-10-19T00:18:14.914Z,7.50
2018-10-19T00:20:43.428Z,7.50
2018-10-19T00:23:11.959Z,7.60
2018-10-19T00:25:40.424Z,7.60
2018-10-19T00:28:08.875Z,7.70
2018-10-19T00:30:37.321Z,7.80
2018-10-19T00:33:05.881Z,7.80
2018-10-19T00:35:34.360Z,7.70
2018-10-19T00:38:02.814Z,7.70
2018-10-19T00:40:31.270Z,7.70
2018-10-19T00:42:59.733Z,7.70
2018-10-19T00:45:33.640Z,7.70
2018-10-19T00:48:12.222Z,7.50
2018-10-19T00:50:40.740Z,7.50
2018-10-19T00:53:10.073Z,7.40
2018-10-19T00:55:38.878Z,7.40
2018-10-19T00:58:07.481Z,7.40
2018-10-19T01:00:37.670Z,7.40
2018-10-19T01:03:06.656Z,7.40
2018-10-19T01:05:35.455Z,7.40
2018-10-19T01:08:03.990Z,7.40
2018-10-19T01:10:32.455Z,7.40
2018-10-19T01:13:01.021Z,7.50
2018-10-19T01:15:30.310Z,7.50
2018-10-19T01:17:59.374Z,7.50
2018-10-19T01:20:27.898Z,7.60
2018-10-19T01:22:56.418Z,7.60
2018-10-19T01:25:24.910Z,7.50
2018-10-19T01:27:53.400Z,7.40
2018-10-19T01:30:21.904Z,7.30
2018-10-19T01:32:50.386Z,7.40
2018-10-19T01:35:18.864Z,7.30
2018-10-19T01:37:47.356Z,7.40
2018-10-19T01:40:15.804Z,7.30
2018-10-19T01:42:44.260Z,7.30
2018-10-19T01:45:13.560Z,7.30
2018-10-19T01:47:42.720Z,7.30
2018-10-19T01:50:11.929Z,7.30
2018-10-19T01:52:41.216Z,7.40
2018-10-19T01:55:09.696Z,7.30
2018-10-19T01:57:38.178Z,7.40
2018-10-19T02:00:07.170Z,7.40
2018-10-19T02:02:35.614Z,7.30
2018-10-19T02:05:04.166Z,7.20
2018-10-19T02:07:32.611Z,7.10
2018-10-19T02:10:01.073Z,7.10
2018-10-19T02:12:29.517Z,7.10
2018-10-19T02:14:57.963Z,7.10
2018-10-19T02:17:27.056Z,7.10
2018-10-19T02:19:55.468Z,7.10
2018-10-19T02:22:23.977Z,7.10
2018-10-19T02:24:52.437Z,7.10
2018-10-19T02:27:20.915Z,7.10
2018-10-19T02:29:49.465Z,7.10
2018-10-19T02:32:17.912Z,7.10
2018-10-19T02:34:46.359Z,7.00
2018-10-19T02:37:14.779Z,6.90
2018-10-19T02:39:43.233Z,6.80
2018-10-19T02:42:11.805Z,6.80
2018-10-19T02:44:40.297Z,6.80
2018-10-19T02:47:08.852Z,6.80
2018-10-19T02:49:37.285Z,6.70
2018-10-19T02:52:06.713Z,6.70
2018-10-19T02:54:35.183Z,6.70
2018-10-19T02:57:03.753Z,6.80
2018-10-19T02:59:32.182Z,6.90
2018-10-19T03:02:00.663Z,6.80
2018-10-19T03:04:29.135Z,6.90
2018-10-19T03:06:57.588Z,6.90
2018-10-19T03:09:26.034Z,7.00
2018-10-19T03:11:54.490Z,6.80
2018-10-19T03:14:22.958Z,6.80
2018-10-19T03:16:51.441Z,6.70
2018-10-19T03:19:19.857Z,6.80
2018-10-19T03:21:48.339Z,6.70
2018-10-19T03:24:16.984Z,6.70
2018-10-19T03:26:45.442Z,6.60
2018-10-19T03:29:13.962Z,6.70
2018-10-19T03:31:42.349Z,6.70
2018-10-19T03:34:10.805Z,6.90
2018-10-19T03:36:39.258Z,6.90
2018-10-19T03:39:08.786Z,6.90
2018-10-19T03:41:37.184Z,6.80
2018-10-19T03:44:05.942Z,6.80
2018-10-19T03:46:34.412Z,6.90
2018-10-19T03:49:02.880Z,6.80
2018-10-19T03:51:31.340Z,6.80
2018-10-19T03:53:59.821Z,6.80
2018-10-19T03:56:28.245Z,6.90
2018-10-19T03:58:56.845Z,6.90
2018-10-19T04:01:25.305Z,7.00
2018-10-19T04:03:53.797Z,7.00
2018-10-19T04:06:22.248Z,6.90
2018-10-19T04:08:50.737Z,6.90
2018-10-19T04:11:19.196Z,6.80
2018-10-19T04:13:47.651Z,6.90
2018-10-19T04:16:16.124Z,6.90
2018-10-19T04:18:44.580Z,7.00
2018-10-19T04:21:13.139Z,7.00
2018-10-19T04:23:41.538Z,6.80
2018-10-19T04:26:10.019Z,6.90
2018-10-19T04:28:38.450Z,6.80
2018-10-19T04:31:06.920Z,6.80
2018-10-19T04:33:35.394Z,6.90
2018-10-19T04:36:03.864Z,7.00
2018-10-19T04:38:32.348Z,7.10
2018-10-19T04:41:00.861Z,7.20
2018-10-19T04:43:29.318Z,7.20
2018-10-19T04:45:57.747Z,7.20
2018-10-19T04:48:26.229Z,7.20
2018-10-19T04:50:54.787Z,7.10
2018-10-19T04:53:23.265Z,7.20
2018-10-19T04:55:51.843Z,7.40
2018-10-19T04:58:20.285Z,7.40
2018-10-19T05:00:51.642Z,7.40
2018-10-19T05:03:20.138Z,7.30
2018-10-19T05:05:48.662Z,7.40
2018-10-19T05:08:17.293Z,7.50
2018-10-19T05:10:45.659Z,7.60
2018-10-19T05:13:14.113Z,7.70
2018-10-19T05:15:42.628Z,7.70
2018-10-19T05:18:11.083Z,7.70
2018-10-19T05:20:39.565Z,7.60
2018-10-19T05:23:08.323Z,7.70
2018-10-19T05:25:41.245Z,7.70
2018-10-19T05:28:09.719Z,7.70
2018-10-19T05:30:38.220Z,7.80
2018-10-19T05:33:06.677Z,7.80
2018-10-19T05:35:35.206Z,7.90
2018-10-19T05:38:03.730Z,7.90
2018-10-19T05:40:32.235Z,8.00
2018-10-19T05:43:00.739Z,8.10
2018-10-19T05:45:29.183Z,8.70
2018-10-19T05:47:57.697Z,8.60
2018-10-19T05:50:26.153Z,8.50
2018-10-19T05:52:54.689Z,8.40
2018-10-19T05:55:23.106Z,8.30
2018-10-19T05:57:51.621Z,8.20
2018-10-19T06:00:20.103Z,8.20
2018-10-19T06:02:48.618Z,8.20
2018-10-19T06:05:17.258Z,8.30
2018-10-19T06:07:45.693Z,8.30
2018-10-19T06:10:14.201Z,8.20
2018-10-19T06:12:42.677Z,8.10
2018-10-19T06:15:11.194Z,8.00
2018-10-19T06:17:39.693Z,8.00
2018-10-19T06:20:08.318Z,8.10
2018-10-19T06:22:36.763Z,8.00
2018-10-19T06:25:05.532Z,8.10
2018-10-19T06:27:33.979Z,8.20
2018-10-19T06:30:02.811Z,8.10
2018-10-19T06:32:31.253Z,8.10
2018-10-19T06:34:59.763Z,8.30
2018-10-19T06:37:28.179Z,8.20
2018-10-19T06:39:56.700Z,8.30
2018-10-19T06:42:25.140Z,8.30
2018-10-19T06:44:53.590Z,8.40
2018-10-19T06:47:22.126Z,8.30
2018-10-19T06:49:50.507Z,8.40
2018-10-19T06:52:19.031Z,8.40
2018-10-19T06:54:47.458Z,8.30
2018-10-19T06:57:15.966Z,8.30
2018-10-19T06:59:44.396Z,8.40
2018-10-19T07:02:12.922Z,8.60
2018-10-19T07:04:41.393Z,8.70
2018-10-19T07:07:09.874Z,8.70
2018-10-19T07:09:38.316Z,8.80
2018-10-19T07:12:06.921Z,9.30
2018-10-19T07:14:35.452Z,9.30
2018-10-19T07:17:03.974Z,9.20
2018-10-19T07:19:32.463Z,9.20
2018-10-19T07:22:00.914Z,9.10
2018-10-19T07:24:29.404Z,9.00
2018-10-19T07:26:57.892Z,9.00
2018-10-19T07:29:26.405Z,9.00
2018-10-19T07:31:54.852Z,9.10
2018-10-19T07:34:23.315Z,9.30
2018-10-19T07:36:51.776Z,9.50
2018-10-19T07:39:20.230Z,9.40
2018-10-19T07:41:48.718Z,9.40
2018-10-19T07:44:17.161Z,9.40
2018-10-19T07:46:45.648Z,9.40
2018-10-19T07:49:14.194Z,9.50
2018-10-19T07:51:42.700Z,9.50
2018-10-19T07:54:11.218Z,9.60
2018-10-19T07:56:39.620Z,9.50
2018-10-19T07:59:08.237Z,9.80
2018-10-19T08:01:36.729Z,9.70
2018-10-19T08:04:05.241Z,9.70
2018-10-19T08:06:33.714Z,9.90
2018-10-19T08:09:02.158Z,10.20
2018-10-19T08:11:30.667Z,10.40
2018-10-19T08:13:59.179Z,10.50
2018-10-19T08:16:27.606Z,10.60
2018-10-19T08:18:56.080Z,10.60
2018-10-19T08:21:24.567Z,10.70
2018-10-19T08:23:53.010Z,10.80
2018-10-19T08:26:21.458Z,10.90
2018-10-19T08:28:49.928Z,11.00
2018-10-19T08:31:18.425Z,10.90
2018-10-19T08:33:46.875Z,11.00
2018-10-19T08:36:15.344Z,11.20
2018-10-19T08:38:43.862Z,11.10
2018-10-19T08:41:12.406Z,11.20
2018-10-19T08:43:40.798Z,11.20
2018-10-19T08:46:14.699Z,11.10
2018-10-19T08:48:43.189Z,11.40
2018-10-19T08:51:11.739Z,11.50
2018-10-19T08:53:40.194Z,11.20
2018-10-19T08:56:08.576Z,11.30
2018-10-19T08:58:37.042Z,11.60
2018-10-19T09:01:05.673Z,11.80
2018-10-19T09:03:34.170Z,11.70
2018-10-19T09:06:02.638Z,11.70
2018-10-19T09:08:31.079Z,11.90
2018-10-19T09:10:59.734Z,12.00
2018-10-19T09:13:28.141Z,12.10
2018-10-19T09:15:56.638Z,12.20
2018-10-19T09:18:25.106Z,12.20
2018-10-19T09:20:53.554Z,12.50
2018-10-19T09:23:22.084Z,12.70
2018-10-19T09:25:50.577Z,12.90
2018-10-19T09:28:19.020Z,13.10
2018-10-19T09:30:47.728Z,13.10
2018-10-19T09:33:16.380Z,13.60
2018-10-19T09:35:44.891Z,13.50
2018-10-19T09:38:13.479Z,13.70
2018-10-19T09:40:41.970Z,13.70
2018-10-19T09:43:10.513Z,14.10
2018-10-19T09:45:38.929Z,15.00
2018-10-19T09:48:07.453Z,15.90
2018-10-19T09:50:35.929Z,16.80
2018-10-19T09:53:04.505Z,17.90
2018-10-19T09:55:33.041Z,18.60
2018-10-19T09:58:01.504Z,19.90
2018-10-19T10:00:35.379Z,21.20
2018-10-19T10:03:03.878Z,21.50
2018-10-19T10:05:32.320Z,21.80
2018-10-19T10:08:00.840Z,22.20
2018-10-19T10:10:29.294Z,23.00
2018-10-19T10:12:57.853Z,23.60
2018-10-19T10:15:26.393Z,23.70
2018-10-19T10:17:54.789Z,23.90
2018-10-19T10:20:23.246Z,24.50
2018-10-19T10:22:51.777Z,25.20
2018-10-19T10:25:20.295Z,25.20
2018-10-19T10:27:48.762Z,25.40
2018-10-19T10:30:17.246Z,25.80
2018-10-19T10:32:45.726Z,25.90
2018-10-19T10:35:14.232Z,26.20
2018-10-19T10:37:42.692Z,26.70
2018-10-19T10:40:11.279Z,26.60
2018-10-19T10:42:39.846Z,26.10
2018-10-19T10:45:08.746Z,25.80
2018-10-19T10:47:37.571Z,25.60
2018-10-19T10:50:06.470Z,25.80
2018-10-19T10:52:34.944Z,26.10
2018-10-19T10:55:03.630Z,26.30
2018-10-19T10:57:32.274Z,26.30
2018-10-19T11:00:00.760Z,26.50
2018-10-19T11:02:29.251Z,26.50
2018-10-19T11:04:57.742Z,26.70
2018-10-19T11:07:26.270Z,27.10
2018-10-19T11:09:54.739Z,26.90
2018-10-19T11:12:23.218Z,26.70
2018-10-19T11:14:51.682Z,27.40
2018-10-19T11:17:20.164Z,27.50
2018-10-19T11:19:49.162Z,27.90
2018-10-19T11:22:17.839Z,27.50
2018-10-19T11:24:46.154Z,26.90
2018-10-19T11:27:14.652Z,27.20
2018-10-19T11:29:43.150Z,26.80
2018-10-19T11:32:11.626Z,27.20
2018-10-19T11:34:40.148Z,27.30
2018-10-19T11:37:08.753Z,27.30
2018-10-19T11:39:45.448Z,27.80
2018-10-19T11:42:13.926Z,27.80
2018-10-19T11:44:42.373Z,27.40
2018-10-19T11:47:10.858Z,27.70
2018-10-19T11:49:39.331Z,28.10
2018-10-19T11:52:09.063Z,28.00
2018-10-19T11:54:37.880Z,27.80
2018-10-19T11:57:06.357Z,27.70
2018-10-19T11:59:34.849Z,27.80
2018-10-19T12:02:03.289Z,27.70
2018-10-19T12:04:31.780Z,27.30
2018-10-19T12:07:00.272Z,26.70
2018-10-19T12:09:28.773Z,26.70
2018-10-19T12:11:57.228Z,26.70
2018-10-19T12:14:25.697Z,26.70
2018-10-19T12:16:54.316Z,26.80
2018-10-19T12:19:22.653Z,26.70
2018-10-19T12:21:51.131Z,26.50
2018-10-19T12:24:19.616Z,26.60
2018-10-19T12:26:48.111Z,26.40
2018-10-19T12:29:16.790Z,26.00
2018-10-19T12:31:45.388Z,25.50
2018-10-19T12:34:13.859Z,24.70
2018-10-19T12:36:42.316Z,24.10
2018-10-19T12:39:11.342Z,23.40
2018-10-19T12:41:39.779Z,22.90
2018-10-19T12:44:08.225Z,22.50
2018-10-19T12:46:50.164Z,22.30
2018-10-19T12:49:20.989Z,21.90
2018-10-19T12:51:49.486Z,21.70
2018-10-19T12:54:18.438Z,21.20
2018-10-19T12:56:46.845Z,20.80
2018-10-19T12:59:15.344Z,20.90
2018-10-19T13:01:43.868Z,20.90
2018-10-19T13:04:12.284Z,20.80
2018-10-19T13:06:40.747Z,20.60
2018-10-19T13:09:10.991Z,20.40
2018-10-19T13:11:39.523Z,20.40
2018-10-19T13:14:07.999Z,20.10
2018-10-19T13:16:36.479Z,20.00
2018-10-19T13:19:05.073Z,19.90
2018-10-19T13:21:33.573Z,19.90
2018-10-19T13:24:02.175Z,19.70
2018-10-19T13:26:30.630Z,19.60
2018-10-19T13:28:59.145Z,19.60
2018-10-19T13:31:27.630Z,19.70
2018-10-19T13:33:56.227Z,19.50
2018-10-19T13:36:24.682Z,19.50
2018-10-19T13:38:53.152Z,19.30
2018-10-19T13:41:21.657Z,19.10
2018-10-19T13:43:50.145Z,19.00
2018-10-19T13:46:18.601Z,18.90
2018-10-19T13:48:47.077Z,18.90
2018-10-19T13:51:15.637Z,18.90
2018-10-19T13:53:44.034Z,18.80
2018-10-19T13:56:12.481Z,18.80
2018-10-19T13:58:40.974Z,18.60
2018-10-19T14:01:09.439Z,18.50
2018-10-19T14:03:37.898Z,18.40
2018-10-19T14:06:06.426Z,18.30
2018-10-19T14:08:34.931Z,18.30
2018-10-19T14:11:03.494Z,18.20
2018-10-19T14:13:31.933Z,18.20
2018-10-19T14:16:00.384Z,18.00
2018-10-19T14:18:28.843Z,18.00
2018-10-19T14:20:57.297Z,17.90
2018-10-19T14:23:25.789Z,17.80
2018-10-19T14:25:54.470Z,17.80
2018-10-19T14:28:22.924Z,17.70
2018-10-19T14:30:51.435Z,17.70
2018-10-19T14:33:20.029Z,17.70
2018-10-19T14:35:48.409Z,17.60
2018-10-19T14:38:16.884Z,17.50
2018-10-19T14:40:45.338Z,17.40
2018-10-19T14:43:13.906Z,17.40
2018-10-19T14:45:42.377Z,17.30
2018-10-19T14:48:10.856Z,17.20
2018-10-19T14:50:39.348Z,17.20
2018-10-19T14:53:07.844Z,17.20
2018-10-19T14:55:36.436Z,17.10
2018-10-19T14:58:05.288Z,17.00
2018-10-19T15:00:33.802Z,16.90
2018-10-19T15:03:02.370Z,16.90
2018-10-19T15:05:30.943Z,16.80
2018-10-19T15:07:59.420Z,16.70
2018-10-19T15:10:28.117Z,16.70
2018-10-19T15:12:56.413Z,16.60
2018-10-19T15:15:24.900Z,16.60
2018-10-19T15:17:53.392Z,16.50
2018-10-19T15:20:21.930Z,16.40
2018-10-19T15:22:50.436Z,16.30
2018-10-19T15:25:19.022Z,16.20
2018-10-19T15:27:47.602Z,16.10
2018-10-19T15:30:18.658Z,16.10
2018-10-19T15:32:47.131Z,16.00
2018-10-19T15:35:15.623Z,15.80
2018-10-19T15:37:44.190Z,15.80
2018-10-19T15:40:12.892Z,15.60
2018-10-19T15:42:41.354Z,15.60
2018-10-19T15:45:11.476Z,15.40
2018-10-19T15:47:39.912Z,15.30
2018-10-19T15:50:08.888Z,15.30
2018-10-19T15:52:44.194Z,15.20
2018-10-19T15:55:12.781Z,15.10
2018-10-19T15:57:41.240Z,14.90
2018-10-19T16:00:10.336Z,14.80
2018-10-19T16:02:38.786Z,14.70
2018-10-19T16:05:07.331Z,14.60
2018-10-19T16:07:35.822Z,14.50
2018-10-19T16:10:04.688Z,14.30
2018-10-19T16:12:33.188Z,14.20
2018-10-19T16:15:01.685Z,14.00
2018-10-19T16:17:30.243Z,13.90
2018-10-19T16:19:58.710Z,13.70
2018-10-19T16:22:27.244Z,13.60
2018-10-19T16:24:56.136Z,13.40
2018-10-19T16:27:24.747Z,13.30
2018-10-19T16:29:53.253Z,13.20
2018-10-19T16:32:21.783Z,13.00
2018-10-19T16:34:50.275Z,12.90
2018-10-19T16:37:18.755Z,12.80
2018-10-19T16:39:47.462Z,12.80
2018-10-19T16:42:15.983Z,12.70
2018-10-19T16:44:44.464Z,12.60
2018-10-19T16:47:13.020Z,12.50
2018-10-19T16:49:41.601Z,12.40
2018-10-19T16:52:10.234Z,12.30
2018-10-19T16:54:38.751Z,12.10
2018-10-19T16:57:07.297Z,12.00
2018-10-19T16:59:35.925Z,11.90
2018-10-19T17:02:05.041Z,11.90
2018-10-19T17:04:33.551Z,11.80
2018-10-19T17:07:02.127Z,11.70
2018-10-19T17:09:30.719Z,11.70
2018-10-19T17:12:00.040Z,11.60
2018-10-19T17:14:28.644Z,11.50
2018-10-19T17:16:57.518Z,11.40
2018-10-19T17:19:26.292Z,11.30
2018-10-19T17:21:55.379Z,11.30
2018-10-19T17:24:24.336Z,11.10
2018-10-19T17:26:57.832Z,11.00
2018-10-19T17:29:26.899Z,10.90
2018-10-19T17:31:55.777Z,10.90
2018-10-19T17:34:24.684Z,10.90
2018-10-19T17:36:53.561Z,10.90
2018-10-19T17:39:22.516Z,10.90
2018-10-19T17:41:51.781Z,10.70
2018-10-19T17:44:20.790Z,10.60
2018-10-19T17:46:50.807Z,10.60
2018-10-19T17:49:19.863Z,10.60
2018-10-19T17:51:48.803Z,10.60
2018-10-19T17:54:17.801Z,10.50
2018-10-19T17:56:48.500Z,10.50
2018-10-19T17:59:18.203Z,10.50
2018-10-19T18:01:48.127Z,10.40
2018-10-19T18:04:18.109Z,10.30
2018-10-19T18:06:47.032Z,10.40
2018-10-19T18:09:22.639Z,10.40
2018-10-19T18:11:51.675Z,10.30
2018-10-19T18:14:20.833Z,10.20
2018-10-19T18:16:50.121Z,10.10
2018-10-19T18:19:19.682Z,10.10
2018-10-19T18:21:49.366Z,10.00
2018-10-19T18:24:18.413Z,9.90
2018-10-19T18:26:48.286Z,9.90
2018-10-19T18:29:17.306Z,9.90
2018-10-19T18:31:47.829Z,9.80
2018-10-19T18:34:16.863Z,9.70
2018-10-19T18:36:45.999Z,9.60
2018-10-19T18:39:15.934Z,9.60
2018-10-19T18:41:45.340Z,9.50
2018-10-19T18:44:14.544Z,9.40
2018-10-19T18:46:45.328Z,9.40
2018-10-19T18:49:14.501Z,9.40
2018-10-19T18:51:44.403Z,9.40
2018-10-19T18:54:13.480Z,9.40
2018-10-19T18:56:42.538Z,9.30
2018-10-19T18:59:11.632Z,9.30
2018-10-19T19:01:41.437Z,9.20
2018-10-19T19:04:10.563Z,9.20
2018-10-19T19:06:40.253Z,9.20
2018-10-19T19:09:12.728Z,9.20
2018-10-19T19:11:43.254Z,9.20
2018-10-19T19:14:13.402Z,9.20
2018-10-19T19:16:44.397Z,9.10
2018-10-19T19:21:40.437Z,9.10
2018-10-19T19:24:15.986Z,9.10
2018-10-19T19:26:45.525Z,9.00
2018-10-19T19:29:17.931Z,9.00
2018-10-19T19:31:47.101Z,9.00
2018-10-19T19:34:23.474Z,8.90
2018-10-19T19:36:52.587Z,8.80
2018-10-19T19:39:21.733Z,8.70
2018-10-19T19:41:58.611Z,8.70
2018-10-19T19:44:28.614Z,8.70
2018-10-19T19:46:57.929Z,8.60
2018-10-19T19:49:32.496Z,8.70
2018-10-19T19:52:02.501Z,8.60
2018-10-19T19:54:33.098Z,8.50
2018-10-19T19:57:02.839Z,8.40
2018-10-19T19:59:31.990Z,8.40
2018-10-19T20:02:01.614Z,8.30
2018-10-19T20:04:31.552Z,8.30
2018-10-19T20:07:01.653Z,8.20
2018-10-19T20:09:30.790Z,8.30
2018-10-19T20:12:00.091Z,8.30
2018-10-19T20:14:31.164Z,8.20
2018-10-19T20:17:00.337Z,8.10
2018-10-19T20:19:30.386Z,8.10
2018-10-19T20:21:59.577Z,8.10
2018-10-19T20:24:28.660Z,8.10
2018-10-19T20:26:58.246Z,8.00
2018-10-19T20:29:27.426Z,8.00
2018-10-19T20:31:56.548Z,7.90
2018-10-19T20:34:25.671Z,7.90
2018-10-19T20:36:54.694Z,8.00
2018-10-19T20:39:23.684Z,8.00
2018-10-19T20:41:52.712Z,8.10
2018-10-19T20:44:21.794Z,8.10
2018-10-19T20:46:52.602Z,8.10
2018-10-19T20:49:21.526Z,8.10
2018-10-19T20:51:50.502Z,8.00
2018-10-19T20:54:19.515Z,8.00
2018-10-19T20:56:48.518Z,7.90
2018-10-19T20:59:17.443Z,7.80
2018-10-19T21:01:46.457Z,7.80
2018-10-19T21:04:16.444Z,7.80
2018-10-19T21:06:45.448Z,7.80
2018-10-19T21:09:14.379Z,7.70
2018-10-19T21:11:43.304Z,7.80
2018-10-19T21:14:12.420Z,7.80
2018-10-19T21:16:41.314Z,7.70
2018-10-19T21:19:10.934Z,7.60
2018-10-19T21:21:39.759Z,7.40
2018-10-19T21:24:08.628Z,7.40
2018-10-19T21:26:37.469Z,7.40
2018-10-19T21:29:06.968Z,7.50
2018-10-19T21:31:35.722Z,7.50
2018-10-19T21:34:04.616Z,7.40
2018-10-19T21:36:33.471Z,7.40
2018-10-19T21:39:02.413Z,7.40
2018-10-19T21:41:31.145Z,7.50
2018-10-19T21:43:59.902Z,7.50
2018-10-19T21:46:28.532Z,7.50
2018-10-19T21:48:57.791Z,7.30
2018-10-19T21:51:26.421Z,7.30
2018-10-19T21:53:55.064Z,7.30
2018-10-19T21:56:23.622Z,7.30
2018-10-19T21:58:52.359Z,7.30
2018-10-19T22:01:21.140Z,7.30
2018-10-19T22:03:49.732Z,7.20
2018-10-19T22:06:18.378Z,7.20
2018-10-19T22:08:46.950Z,7.20
2018-10-19T22:11:18.122Z,7.10
2018-10-19T22:13:46.621Z,7.10
2018-10-19T22:16:15.604Z,7.10
2018-10-19T22:18:44.106Z,7.20
2018-10-19T22:21:12.612Z,7.10
2018-10-19T22:23:41.094Z,7.00
2018-10-19T22:26:09.591Z,7.00
2018-10-19T22:28:38.108Z,6.90
2018-10-19T22:31:06.953Z,6.90
2018-10-19T22:33:35.468Z,7.00
2018-10-19T22:36:03.983Z,7.00
2018-10-19T22:38:32.466Z,7.00
2018-10-19T22:41:00.973Z,7.00
2018-10-19T22:43:29.430Z,7.00
2018-10-19T22:45:57.880Z,6.90
2018-10-19T22:48:26.379Z,6.90
2018-10-19T22:50:54.821Z,6.80
2018-10-19T22:53:23.342Z,6.90
2018-10-19T22:55:51.810Z,6.80
2018-10-19T22:58:20.300Z,6.70
2018-10-19T23:00:48.748Z,6.80
2018-10-19T23:03:17.176Z,6.80
2018-10-19T23:05:52.318Z,6.70
2018-10-19T23:08:20.798Z,6.70
2018-10-19T23:10:49.246Z,6.70
2018-10-19T23:13:17.706Z,6.70
2018-10-19T23:15:46.183Z,6.70
2018-10-19T23:18:14.652Z,6.50
2018-10-19T23:20:43.120Z,6.50
2018-10-19T23:23:11.694Z,6.50
2018-10-19T23:25:40.106Z,6.50
2018-10-19T23:28:08.611Z,6.50
2018-10-19T23:30:37.173Z,6.50
2018-10-19T23:33:05.768Z,6.40
2018-10-19T23:35:34.210Z,6.40
2018-10-19T23:38:02.832Z,6.30
2018-10-19T23:40:31.376Z,6.30
2018-10-19T23:42:59.852Z,6.20
2018-10-19T23:45:28.290Z,6.20
2018-10-19T23:47:56.759Z,6.10
2018-10-19T23:50:25.222Z,6.00
2018-10-19T23:52:53.677Z,6.00
2018-10-19T23:55:22.135Z,5.90
2018-10-19T23:57:50.565Z,5.90
